Aeroporto :
LOGIN :

Iscrizione | Disclaimer

   EN    FR    IT 

 










Sommario :    VFR   VFR Marginale   IFR   IFR Intensivo   IFR Molto Intensivo
Visibilità : 
Base nubi : 
>= 8 km
>= 3000ft
5 / 8 km
1000 / 3000 ft
1500m / 5 km
500 / 1000 ft
800 / 1500m
200 / 500 ft
< 800m
< 200 ft
Simboli :   Temporali  Nebbia  Neve Forte  Precipitazioni Forti  Vento > 20 kt
SIGMETs :   Varie  Temporali  Ghiacco  Turbolenza  Onda orograficha  Ceneri Vulcaniche






- Altitudine del aeroporto : 291 ft
- Codice IATA : ORY


LFPO - Paris-Orly

ULTIMO METAR :
  • 011200Z AUTO 08008KT 360V140 CAVOK 11/M04 Q1020 NOSIG

METARs OBSOLETI :
  • 011130Z AUTO 04008KT 350V070 CAVOK 11/M03 Q1020 NOSIG
  • 011100Z AUTO 06008KT 020V090 CAVOK 10/M03 Q1021 NOSIG
  • 011030Z AUTO 04010KT 360V080 CAVOK 10/M03 Q1021 NOSIG
  • 011000Z AUTO 03010KT 360V070 CAVOK 10/M04 Q1021 NOSIG
  • 010930Z AUTO 06007KT 020V090 CAVOK 09/M03 Q1022 NOSIG

TAF TAF LFPO
Valido dal 01 a 12 ore il 02 a 18 ore UTC


011100Z 0112/0218 04008KT CAVOK
ATIS : +33 1 49 75 65 80



MetMap, La meteo Aeronautica in un colpo d'occhio ! - Copyright ORBIFLY Dicembre 2007 - Disclaimer

ORBIFLY MET'MAP TEAM :

Programmazione e sviluppo : Alexandra Zaïnal
Concezione : Baudouin d'Aumeries
Aiuto per la programmazione : Marc-Olivier Méhu
Supporto tecnico e logistico : Manuel Goepfert
Aiuto per la traduzione : Arnaldo La Scala

Contatto : metmap@orbifly.com




FONTI E CREDITI :

   NOAA